createdAt,value
2022-10-25T00:01:21.254Z,93.40
2022-10-25T00:03:48.136Z,93.40
2022-10-25T00:06:14.993Z,93.40
2022-10-25T00:08:41.883Z,93.40
2022-10-25T00:11:10.399Z,93.40
2022-10-25T00:13:37.250Z,93.50
2022-10-25T00:16:04.254Z,93.50
2022-10-25T00:18:31.071Z,93.50
2022-10-25T00:20:57.900Z,93.50
2022-10-25T00:23:24.732Z,93.50
2022-10-25T00:26:03.904Z,93.80
2022-10-25T00:28:30.873Z,93.60
2022-10-25T00:31:08.415Z,93.60
2022-10-25T00:33:35.779Z,93.60
2022-10-25T00:36:05.867Z,93.60
2022-10-25T00:38:32.764Z,93.60
2022-10-25T00:40:59.890Z,93.70
2022-10-25T00:43:38.735Z,93.60
2022-10-25T00:46:08.956Z,93.70
2022-10-25T00:48:35.774Z,93.60
2022-10-25T00:51:02.579Z,93.70
2022-10-25T00:53:32.708Z,93.70
2022-10-25T00:56:12.508Z,93.70
2022-10-25T00:58:39.631Z,93.70
2022-10-25T01:01:07.261Z,93.70
2022-10-25T01:03:34.949Z,93.70
2022-10-25T01:06:02.685Z,93.70
2022-10-25T01:08:29.475Z,93.60
2022-10-25T01:10:56.313Z,93.70
2022-10-25T01:13:23.151Z,93.60
2022-10-25T01:16:15.090Z,93.70
2022-10-25T01:19:12.929Z,93.70
2022-10-25T01:21:46.200Z,93.70
2022-10-25T01:24:28.637Z,93.70
2022-10-25T01:27:34.535Z,93.70
2022-10-25T01:30:18.709Z,93.70
2022-10-25T01:33:03.613Z,93.60
2022-10-25T01:35:51.745Z,93.60
2022-10-25T01:38:24.582Z,93.50
2022-10-25T01:41:01.183Z,93.50
2022-10-25T01:43:48.257Z,93.50
2022-10-25T01:46:32.929Z,93.50
2022-10-25T01:49:03.649Z,93.40
2022-10-25T01:51:30.565Z,93.30
2022-10-25T01:53:57.387Z,93.30
2022-10-25T01:56:27.022Z,93.30
2022-10-25T01:59:08.584Z,93.30
2022-10-25T02:01:55.852Z,93.30
2022-10-25T02:04:44.155Z,93.30
2022-10-25T02:07:11.957Z,93.40
2022-10-25T02:09:57.322Z,93.40
2022-10-25T02:12:32.977Z,93.50
2022-10-25T02:15:09.149Z,93.50
2022-10-25T02:17:38.580Z,93.60
2022-10-25T02:20:05.939Z,93.60
2022-10-25T02:22:32.807Z,93.60
2022-10-25T02:24:59.615Z,93.80
2022-10-25T02:27:26.413Z,93.90
2022-10-25T02:29:53.299Z,93.70
2022-10-25T02:32:20.267Z,93.70
2022-10-25T02:34:50.319Z,93.80
2022-10-25T02:37:17.825Z,93.80
2022-10-25T02:39:45.225Z,93.90
2022-10-25T02:42:12.032Z,93.90
2022-10-25T02:44:38.858Z,93.90
2022-10-25T02:47:05.708Z,93.90
2022-10-25T02:49:32.637Z,94.00
2022-10-25T02:51:59.481Z,94.00
2022-10-25T02:54:26.238Z,94.00
2022-10-25T02:56:53.127Z,94.10
2022-10-25T02:59:21.149Z,94.00
2022-10-25T03:01:48.273Z,94.10
2022-10-25T03:04:15.120Z,94.10
2022-10-25T03:06:41.991Z,94.10
2022-10-25T03:09:08.789Z,94.10
2022-10-25T03:11:35.604Z,94.10
2022-10-25T03:14:02.410Z,94.10
2022-10-25T03:16:29.212Z,94.10
2022-10-25T03:18:59.493Z,94.20
2022-10-25T03:21:26.365Z,94.20
2022-10-25T03:23:53.203Z,94.20
2022-10-25T03:26:20.105Z,94.20
2022-10-25T03:28:46.951Z,94.20
2022-10-25T03:31:14.994Z,94.30
2022-10-25T03:33:41.820Z,94.30
2022-10-25T03:36:08.947Z,94.30
2022-10-25T03:38:35.787Z,94.30
2022-10-25T03:41:02.645Z,94.40
2022-10-25T03:43:29.419Z,94.40
2022-10-25T03:45:56.412Z,94.40
2022-10-25T03:48:23.213Z,94.40
2022-10-25T03:50:50.036Z,94.40
2022-10-25T03:53:16.867Z,94.50
2022-10-25T03:55:43.657Z,94.50
2022-10-25T03:58:10.471Z,94.50
2022-10-25T04:00:37.360Z,94.50
2022-10-25T04:03:04.277Z,94.50
2022-10-25T04:05:31.666Z,94.70
2022-10-25T04:07:58.805Z,94.50
2022-10-25T04:10:25.768Z,94.50
2022-10-25T04:12:53.922Z,94.60
2022-10-25T04:15:21.820Z,94.60
2022-10-25T04:17:50.161Z,94.60
2022-10-25T04:20:17.180Z,94.70
2022-10-25T04:22:44.020Z,94.70
2022-10-25T04:25:10.886Z,94.70
2022-10-25T04:27:37.726Z,94.70
2022-10-25T04:30:04.779Z,94.70
2022-10-25T04:32:31.589Z,94.70
2022-10-25T04:34:58.404Z,94.70
2022-10-25T04:37:25.215Z,94.70
2022-10-25T04:39:52.062Z,94.70
2022-10-25T04:42:19.441Z,94.70
2022-10-25T04:44:46.377Z,94.70
2022-10-25T04:47:13.303Z,94.70
2022-10-25T04:49:40.189Z,94.70
2022-10-25T04:52:06.993Z,94.70
2022-10-25T04:54:33.775Z,94.80
2022-10-25T04:57:00.583Z,94.80
2022-10-25T04:59:27.364Z,94.80
2022-10-25T05:01:54.409Z,94.80
2022-10-25T05:04:21.494Z,94.80
2022-10-25T05:06:48.284Z,94.80
2022-10-25T05:09:15.286Z,94.80
2022-10-25T05:11:42.111Z,94.80
2022-10-25T05:14:08.911Z,94.90
2022-10-25T05:16:35.754Z,95.00
2022-10-25T05:19:02.566Z,94.90
2022-10-25T05:21:31.167Z,94.90
2022-10-25T05:24:02.163Z,94.90
2022-10-25T05:26:29.735Z,94.90
2022-10-25T05:28:57.047Z,94.90
2022-10-25T05:31:28.559Z,94.90
2022-10-25T05:33:56.925Z,94.90
2022-10-25T05:36:23.749Z,95.10
2022-10-25T05:38:50.666Z,95.00
2022-10-25T05:41:17.809Z,94.90
2022-10-25T05:43:44.858Z,94.90
2022-10-25T05:46:16.429Z,94.90
2022-10-25T05:48:48.490Z,94.90
2022-10-25T05:51:33.408Z,94.80
2022-10-25T05:54:02.479Z,94.80
2022-10-25T05:56:29.743Z,94.70
2022-10-25T05:58:57.171Z,94.70
2022-10-25T06:01:26.126Z,94.70
2022-10-25T06:03:54.005Z,94.60
2022-10-25T06:06:20.985Z,94.60
2022-10-25T06:08:47.990Z,94.60
2022-10-25T06:11:19.059Z,94.60
2022-10-25T06:13:46.388Z,94.60
2022-10-25T06:16:14.775Z,94.70
2022-10-25T06:18:41.775Z,94.50
2022-10-25T06:21:10.258Z,94.50
2022-10-25T06:23:37.186Z,94.40
2022-10-25T06:26:07.725Z,94.50
2022-10-25T06:28:34.757Z,94.60
2022-10-25T06:31:02.967Z,94.60
2022-10-25T06:33:30.446Z,94.60
2022-10-25T06:36:01.830Z,94.60
2022-10-25T06:38:29.241Z,94.60
2022-10-25T06:41:03.708Z,94.60
2022-10-25T06:43:30.924Z,94.60
2022-10-25T06:45:57.961Z,94.60
2022-10-25T06:48:24.842Z,94.70
2022-10-25T06:51:09.993Z,94.70
2022-10-25T06:53:39.307Z,94.70
2022-10-25T06:56:09.377Z,94.60
2022-10-25T06:58:40.260Z,94.60
2022-10-25T07:01:08.906Z,94.60
2022-10-25T07:03:35.910Z,94.50
2022-10-25T07:06:06.715Z,94.50
2022-10-25T07:08:34.381Z,94.50
2022-10-25T07:11:01.196Z,94.50
2022-10-25T07:13:28.145Z,94.60
2022-10-25T07:16:07.715Z,94.60
2022-10-25T07:18:34.954Z,94.60
2022-10-25T07:21:02.397Z,94.60
2022-10-25T07:23:29.443Z,94.60
2022-10-25T07:25:56.668Z,94.60
2022-10-25T07:28:23.633Z,94.60
2022-10-25T07:30:50.440Z,94.60
2022-10-25T07:33:19.019Z,94.60
2022-10-25T07:36:05.830Z,94.60
2022-10-25T07:38:36.396Z,94.60
2022-10-25T07:41:03.344Z,94.60
2022-10-25T07:43:30.177Z,94.60
2022-10-25T07:45:57.009Z,94.50
2022-10-25T07:48:24.095Z,94.50
2022-10-25T07:50:51.092Z,94.50
2022-10-25T07:53:18.149Z,94.50
2022-10-25T07:55:50.749Z,94.50
2022-10-25T07:58:17.565Z,94.50
2022-10-25T08:00:44.387Z,94.50
2022-10-25T08:03:12.257Z,94.50
2022-10-25T08:05:39.328Z,94.50
2022-10-25T08:08:06.198Z,94.60
2022-10-25T08:10:33.010Z,94.60
2022-10-25T08:12:59.880Z,94.50
2022-10-25T08:15:26.770Z,94.50
2022-10-25T08:18:00.357Z,94.50
2022-10-25T08:20:43.392Z,94.40
2022-10-25T08:23:14.086Z,94.40
2022-10-25T08:25:40.948Z,94.30
2022-10-25T08:28:07.783Z,94.20
2022-10-25T08:30:34.688Z,94.20
2022-10-25T08:33:01.629Z,94.10
2022-10-25T08:35:28.475Z,94.10
2022-10-25T08:37:55.310Z,94.00
2022-10-25T08:40:56.301Z,93.90
2022-10-25T08:43:29.916Z,93.90
2022-10-25T08:46:03.270Z,93.90
2022-10-25T08:48:36.305Z,93.80
2022-10-25T08:51:12.824Z,93.70
2022-10-25T08:53:42.587Z,93.50
2022-10-25T08:56:16.740Z,93.50
2022-10-25T08:58:55.497Z,93.40
2022-10-25T09:01:41.133Z,93.40
2022-10-25T09:04:08.068Z,93.40
2022-10-25T09:06:43.843Z,93.30
2022-10-25T09:09:25.546Z,93.20
2022-10-25T09:12:19.592Z,93.10
2022-10-25T09:15:02.883Z,92.90
2022-10-25T09:17:58.532Z,92.90
2022-10-25T09:20:28.720Z,92.70
2022-10-25T09:23:07.973Z,92.70
2022-10-25T09:25:40.473Z,92.50
2022-10-25T09:28:30.928Z,92.40
2022-10-25T09:30:57.793Z,92.10
2022-10-25T09:33:28.338Z,92.00
2022-10-25T09:35:55.452Z,91.80
2022-10-25T09:38:45.388Z,91.70
2022-10-25T09:41:19.381Z,91.50
2022-10-25T09:43:58.629Z,91.40
2022-10-25T09:46:34.110Z,91.20
2022-10-25T09:49:22.807Z,91.20
2022-10-25T09:52:00.938Z,90.90
2022-10-25T09:54:32.905Z,90.70
2022-10-25T09:56:59.794Z,90.50
2022-10-25T09:59:28.181Z,90.40
2022-10-25T10:01:55.137Z,90.30
2022-10-25T10:04:32.946Z,90.10
2022-10-25T10:07:03.795Z,90.10
2022-10-25T10:09:30.888Z,90.10
2022-10-25T10:11:58.274Z,90.00
2022-10-25T10:14:33.248Z,89.90
2022-10-25T10:17:00.135Z,89.60
2022-10-25T10:19:29.968Z,89.60
2022-10-25T10:22:00.780Z,89.20
2022-10-25T10:24:29.551Z,88.90
2022-10-25T10:26:58.698Z,88.80
2022-10-25T10:29:27.591Z,88.70
2022-10-25T10:31:55.954Z,88.70
2022-10-25T10:34:41.826Z,88.70
2022-10-25T10:37:16.209Z,88.80
2022-10-25T10:39:58.878Z,89.00
2022-10-25T10:42:37.814Z,89.10
2022-10-25T10:45:07.949Z,89.30
2022-10-25T10:47:49.655Z,89.40
2022-10-25T10:50:22.755Z,89.30
2022-10-25T10:53:06.382Z,89.30
2022-10-25T10:55:37.919Z,89.20
2022-10-25T10:58:14.959Z,89.40
2022-10-25T11:00:48.280Z,89.40
2022-10-25T11:03:59.454Z,89.70
2022-10-25T11:06:35.612Z,89.80
2022-10-25T11:09:17.745Z,90.20
2022-10-25T11:11:45.171Z,90.10
2022-10-25T11:14:15.450Z,90.20
2022-10-25T11:16:44.074Z,90.30
2022-10-25T11:19:43.231Z,90.40
2022-10-25T11:22:32.127Z,90.70
2022-10-25T11:25:16.561Z,90.60
2022-10-25T11:28:21.494Z,90.30
2022-10-25T11:30:52.597Z,89.50
2022-10-25T11:33:45.222Z,88.40
2022-10-25T11:36:15.425Z,87.30
2022-10-25T11:39:02.002Z,87.00
2022-10-25T11:41:51.810Z,86.30
2022-10-25T11:44:35.485Z,86.10
2022-10-25T11:47:02.209Z,86.40
2022-10-25T11:50:02.289Z,87.30
2022-10-25T11:52:32.671Z,87.50
2022-10-25T11:55:21.447Z,87.60
2022-10-25T11:57:57.482Z,87.70
2022-10-25T12:00:31.597Z,87.70
2022-10-25T12:03:04.334Z,87.80
2022-10-25T12:05:39.792Z,86.90
2022-10-25T12:08:09.394Z,85.70
2022-10-25T12:10:43.085Z,84.80
2022-10-25T12:13:13.951Z,84.00
2022-10-25T12:15:49.079Z,83.70
2022-10-25T12:18:22.558Z,83.70
2022-10-25T12:20:52.079Z,83.80
2022-10-25T12:23:20.704Z,84.20
2022-10-25T12:25:59.640Z,84.60
2022-10-25T12:28:35.380Z,85.10
2022-10-25T12:31:13.648Z,85.20
2022-10-25T12:33:42.700Z,85.30
2022-10-25T12:36:27.691Z,85.30
2022-10-25T12:38:54.521Z,85.80
2022-10-25T12:41:36.222Z,84.90
2022-10-25T12:44:29.709Z,83.40
2022-10-25T12:47:24.391Z,82.40
2022-10-25T12:50:12.438Z,81.80
2022-10-25T12:52:40.728Z,81.60
2022-10-25T12:55:28.579Z,80.90
2022-10-25T12:58:17.128Z,79.80
2022-10-25T13:01:00.192Z,78.80
2022-10-25T13:03:44.764Z,77.30
2022-10-25T13:06:31.319Z,75.90
2022-10-25T13:09:04.429Z,74.60
2022-10-25T13:11:39.525Z,73.20
2022-10-25T13:14:24.976Z,72.60
2022-10-25T13:16:51.998Z,71.80
2022-10-25T13:19:42.671Z,71.20
2022-10-25T13:22:12.186Z,70.40
2022-10-25T13:24:44.998Z,70.00
2022-10-25T13:27:19.503Z,69.30
2022-10-25T13:30:01.686Z,69.20
2022-10-25T13:32:33.259Z,69.00
2022-10-25T13:35:00.193Z,68.80
2022-10-25T13:37:33.485Z,69.20
2022-10-25T13:40:00.573Z,69.50
2022-10-25T13:42:37.529Z,70.50
2022-10-25T13:45:04.378Z,71.00
2022-10-25T13:47:38.541Z,70.70
2022-10-25T13:50:23.628Z,70.60
2022-10-25T13:52:50.642Z,70.90
2022-10-25T13:55:17.696Z,71.30
2022-10-25T13:57:52.377Z,71.10
2022-10-25T14:00:38.393Z,70.90
2022-10-25T14:03:08.514Z,70.10
2022-10-25T14:05:56.916Z,69.80
2022-10-25T14:08:57.621Z,69.40
2022-10-25T14:11:33.252Z,68.90
2022-10-25T14:14:12.274Z,68.60
2022-10-25T14:16:53.298Z,68.20
2022-10-25T14:19:41.999Z,68.00
2022-10-25T14:22:18.640Z,67.90
2022-10-25T14:24:47.772Z,68.10
2022-10-25T14:27:32.114Z,67.70
2022-10-25T14:30:25.046Z,66.50
2022-10-25T14:32:58.341Z,65.80
2022-10-25T14:35:29.170Z,65.60
2022-10-25T14:37:55.990Z,65.90
2022-10-25T14:40:25.626Z,66.20
2022-10-25T14:42:54.837Z,66.60
2022-10-25T14:45:25.942Z,67.60
2022-10-25T14:47:53.085Z,68.00
2022-10-25T14:50:24.218Z,68.20
2022-10-25T14:52:51.229Z,67.80
2022-10-25T14:55:24.441Z,68.00
2022-10-25T14:57:51.190Z,67.60
2022-10-25T15:00:22.621Z,68.30
2022-10-25T15:02:53.287Z,68.10
2022-10-25T15:05:21.617Z,68.40
2022-10-25T15:07:49.124Z,68.70
2022-10-25T15:10:41.010Z,69.00
2022-10-25T15:13:27.843Z,69.40
2022-10-25T15:15:54.813Z,70.30
2022-10-25T15:18:32.210Z,71.20
2022-10-25T15:21:12.011Z,71.40
2022-10-25T15:23:39.966Z,71.60
2022-10-25T15:26:23.598Z,71.90
2022-10-25T15:28:54.815Z,72.00
2022-10-25T15:31:24.816Z,72.70
2022-10-25T15:34:04.707Z,72.90
2022-10-25T15:36:32.668Z,73.10
2022-10-25T15:39:08.970Z,73.50
2022-10-25T15:41:37.222Z,73.80
2022-10-25T15:44:04.048Z,74.20
2022-10-25T15:46:34.485Z,74.60
2022-10-25T15:49:06.728Z,74.90
2022-10-25T15:51:34.221Z,75.40
2022-10-25T15:54:01.150Z,76.00
2022-10-25T15:56:28.064Z,76.70
2022-10-25T15:58:55.091Z,76.80
2022-10-25T16:01:22.038Z,77.20
2022-10-25T16:03:49.011Z,77.70
2022-10-25T16:06:15.809Z,78.00
2022-10-25T16:08:42.598Z,78.40
2022-10-25T16:11:14.487Z,78.60
2022-10-25T16:13:41.313Z,78.90
2022-10-25T16:16:34.874Z,79.20
2022-10-25T16:18:56.935Z,79.40
2022-10-25T16:21:27.087Z,79.70
2022-10-25T16:23:53.913Z,80.00
2022-10-25T16:26:33.148Z,80.40
2022-10-25T16:29:00.000Z,80.70
2022-10-25T16:31:26.812Z,81.00
2022-10-25T16:33:54.668Z,81.10
2022-10-25T16:36:21.500Z,81.40
2022-10-25T16:38:48.342Z,81.70
2022-10-25T16:41:33.450Z,81.90
2022-10-25T16:44:00.322Z,82.40
2022-10-25T16:46:27.326Z,82.50
2022-10-25T16:48:55.918Z,82.80
2022-10-25T16:51:25.804Z,83.20
2022-10-25T16:53:52.633Z,83.50
2022-10-25T16:56:19.503Z,83.80
2022-10-25T16:58:46.383Z,84.20
2022-10-25T17:01:20.851Z,84.50
2022-10-25T17:03:49.273Z,84.90
2022-10-25T17:06:39.769Z,85.00
2022-10-25T17:09:03.840Z,85.30
2022-10-25T17:11:30.667Z,85.50
2022-10-25T17:13:57.449Z,85.80
2022-10-25T17:16:24.322Z,86.10
2022-10-25T17:18:51.156Z,86.40
2022-10-25T17:21:17.996Z,86.60
2022-10-25T17:23:44.833Z,86.90
2022-10-25T17:26:11.676Z,87.20
2022-10-25T17:28:43.048Z,87.40
2022-10-25T17:31:12.207Z,87.60
2022-10-25T17:33:39.016Z,87.90
2022-10-25T17:36:14.183Z,88.20
2022-10-25T17:38:43.665Z,88.40
2022-10-25T17:41:10.609Z,88.60
2022-10-25T17:43:38.042Z,88.80
2022-10-25T17:46:18.542Z,89.00
2022-10-25T17:48:45.626Z,89.20
2022-10-25T17:51:13.380Z,89.80
2022-10-25T17:53:40.276Z,89.50
2022-10-25T17:56:17.948Z,89.60
2022-10-25T17:58:45.967Z,89.80
2022-10-25T18:01:13.835Z,89.90
2022-10-25T18:03:40.748Z,90.00
2022-10-25T18:06:09.136Z,90.20
2022-10-25T18:08:38.804Z,90.10
2022-10-25T18:11:09.890Z,90.10
2022-10-25T18:13:38.293Z,90.10
2022-10-25T18:18:38.715Z,90.20
2022-10-25T18:21:13.561Z,90.20
2022-10-25T18:23:40.656Z,90.30
2022-10-25T18:26:07.953Z,90.30
2022-10-25T18:28:35.246Z,90.30
2022-10-25T18:31:09.444Z,90.30
2022-10-25T18:33:37.546Z,90.30
2022-10-25T18:36:15.870Z,90.30
2022-10-25T18:38:42.646Z,90.40
2022-10-25T18:41:11.256Z,90.40
2022-10-25T18:43:38.110Z,90.40
2022-10-25T18:46:04.991Z,90.40
2022-10-25T18:48:31.769Z,90.40
2022-10-25T18:51:09.980Z,90.30
2022-10-25T18:53:38.519Z,90.60
2022-10-25T18:56:09.853Z,90.30
2022-10-25T18:58:36.830Z,90.30
2022-10-25T19:01:11.514Z,90.30
2022-10-25T19:03:38.875Z,90.30
2022-10-25T19:06:06.159Z,90.30
2022-10-25T19:08:33.959Z,90.30
2022-10-25T19:11:04.996Z,90.30
2022-10-25T19:13:31.812Z,90.30
2022-10-25T19:15:58.937Z,90.40
2022-10-25T19:18:26.332Z,90.40
2022-10-25T19:20:53.244Z,90.40
2022-10-25T19:23:20.475Z,90.50
2022-10-25T19:25:47.346Z,90.50
2022-10-25T19:28:14.135Z,90.50
2022-10-25T19:30:41.095Z,90.50
2022-10-25T19:33:07.899Z,90.50
2022-10-25T19:35:34.711Z,90.50
2022-10-25T19:38:01.534Z,90.60
2022-10-25T19:40:28.452Z,90.60
2022-10-25T19:42:55.274Z,90.60
2022-10-25T19:45:22.143Z,90.60
2022-10-25T19:47:50.198Z,90.60
2022-10-25T19:50:17.323Z,90.60
2022-10-25T19:52:44.320Z,90.70
2022-10-25T19:55:11.223Z,90.70
2022-10-25T19:57:38.071Z,90.80
2022-10-25T20:00:08.638Z,90.80
2022-10-25T20:02:38.545Z,90.80
2022-10-25T20:05:05.917Z,90.80
2022-10-25T20:07:32.833Z,90.90
2022-10-25T20:09:59.680Z,90.90
2022-10-25T20:12:26.956Z,91.00
2022-10-25T20:14:53.786Z,91.00
2022-10-25T20:17:20.614Z,91.00
2022-10-25T20:19:47.407Z,91.00
2022-10-25T20:22:14.229Z,91.00
2022-10-25T20:24:41.057Z,91.00
2022-10-25T20:27:08.063Z,91.00
2022-10-25T20:29:34.935Z,91.00
2022-10-25T20:32:01.832Z,90.90
2022-10-25T20:34:28.720Z,91.00
2022-10-25T20:36:55.536Z,90.90
2022-10-25T20:39:22.435Z,91.00
2022-10-25T20:41:49.348Z,91.00
2022-10-25T20:44:16.246Z,91.00
2022-10-25T20:46:43.198Z,91.00
2022-10-25T20:49:10.110Z,91.00
2022-10-25T20:51:37.977Z,91.00
2022-10-25T20:54:09.478Z,91.00
2022-10-25T20:56:37.271Z,91.00
2022-10-25T20:59:04.438Z,91.00
2022-10-25T21:01:31.395Z,91.00
2022-10-25T21:03:58.311Z,91.00
2022-10-25T21:06:25.123Z,91.00
2022-10-25T21:08:51.973Z,91.00
2022-10-25T21:11:18.795Z,91.00
2022-10-25T21:13:45.713Z,91.00
2022-10-25T21:16:14.190Z,91.00
2022-10-25T21:18:41.589Z,91.00
2022-10-25T21:21:10.393Z,91.00
2022-10-25T21:23:37.262Z,91.00
2022-10-25T21:26:05.668Z,91.00
2022-10-25T21:28:34.228Z,91.00
2022-10-25T21:31:05.554Z,91.00
2022-10-25T21:33:32.365Z,91.00
2022-10-25T21:36:06.446Z,91.00
2022-10-25T21:38:33.400Z,91.10
2022-10-25T21:41:07.216Z,91.00
2022-10-25T21:43:34.226Z,91.10
2022-10-25T21:46:04.502Z,91.10
2022-10-25T21:48:31.320Z,91.10
2022-10-25T21:51:01.081Z,91.20
2022-10-25T21:53:27.946Z,91.20
2022-10-25T21:56:10.298Z,91.20
2022-10-25T21:58:38.116Z,91.20
2022-10-25T22:01:15.765Z,91.20
2022-10-25T22:03:42.667Z,91.20
2022-10-25T22:06:10.774Z,91.20
2022-10-25T22:08:37.713Z,91.20
2022-10-25T22:11:08.749Z,91.30
2022-10-25T22:13:35.587Z,91.20
2022-10-25T22:16:07.552Z,91.20
2022-10-25T22:18:34.829Z,91.30
2022-10-25T22:21:04.161Z,91.20
2022-10-25T22:23:31.480Z,91.20
2022-10-25T22:26:05.426Z,91.20
2022-10-25T22:28:34.359Z,91.20
2022-10-25T22:31:14.294Z,91.30
2022-10-25T22:33:41.370Z,91.30
2022-10-25T22:36:15.835Z,91.30
2022-10-25T22:38:42.896Z,91.30
2022-10-25T22:41:13.166Z,91.30
2022-10-25T22:43:40.103Z,91.30
2022-10-25T22:46:08.664Z,91.30
2022-10-25T22:48:36.699Z,91.30
2022-10-25T22:51:03.729Z,91.30
2022-10-25T22:53:30.666Z,91.30
2022-10-25T22:56:09.777Z,91.30
2022-10-25T22:58:38.164Z,91.30
2022-10-25T23:01:13.028Z,91.30
2022-10-25T23:03:43.659Z,91.30
2022-10-25T23:06:12.213Z,91.30
2022-10-25T23:08:39.106Z,91.30
2022-10-25T23:11:16.654Z,91.30
2022-10-25T23:13:43.803Z,91.30
2022-10-25T23:16:11.017Z,91.30
2022-10-25T23:18:38.271Z,91.30
2022-10-25T23:21:07.060Z,91.30
2022-10-25T23:23:34.918Z,91.30
2022-10-25T23:26:01.938Z,91.30
2022-10-25T23:28:33.173Z,91.40
2022-10-25T23:31:07.530Z,91.40
2022-10-25T23:33:34.576Z,91.40
2022-10-25T23:36:02.851Z,91.40
2022-10-25T23:38:30.190Z,91.40
2022-10-25T23:40:57.023Z,91.40
2022-10-25T23:43:23.925Z,91.40
2022-10-25T23:45:50.936Z,91.40
2022-10-25T23:48:17.835Z,91.40
2022-10-25T23:50:44.674Z,91.40
2022-10-25T23:53:11.532Z,91.40
2022-10-25T23:55:38.754Z,91.40
2022-10-25T23:58:05.597Z,91.40
